sensor_id;sensor_type;location;lat;lon;timestamp;temperature;humidity
28552;DHT22;15752;49.560;8.708;2022-12-11T00:01:14;4.20;98.30
28552;DHT22;15752;49.560;8.708;2022-12-11T00:03:45;4.20;98.50
28552;DHT22;15752;49.560;8.708;2022-12-11T00:06:15;4.20;98.50
28552;DHT22;15752;49.560;8.708;2022-12-11T00:08:45;4.20;98.50
28552;DHT22;15752;49.560;8.708;2022-12-11T00:11:15;4.20;98.50
28552;DHT22;15752;49.560;8.708;2022-12-11T00:13:44;4.10;98.30
28552;DHT22;15752;49.560;8.708;2022-12-11T00:16:12;4.10;98.70
28552;DHT22;15752;49.560;8.708;2022-12-11T00:18:41;4.10;98.50
28552;DHT22;15752;49.560;8.708;2022-12-11T00:21:11;4.10;98.50
28552;DHT22;15752;49.560;8.708;2022-12-11T00:23:41;4.10;98.50
28552;DHT22;15752;49.560;8.708;2022-12-11T00:26:13;4.10;98.40
28552;DHT22;15752;49.560;8.708;2022-12-11T00:28:44;4.10;98.60
28552;DHT22;15752;49.560;8.708;2022-12-11T00:31:15;4.10;98.50
28552;DHT22;15752;49.560;8.708;2022-12-11T00:33:45;4.30;99.00
28552;DHT22;15752;49.560;8.708;2022-12-11T00:36:17;4.10;98.70
28552;DHT22;15752;49.560;8.708;2022-12-11T00:38:47;4.10;98.60
28552;DHT22;15752;49.560;8.708;2022-12-11T00:41:17;4.10;98.60
28552;DHT22;15752;49.560;8.708;2022-12-11T00:43:46;4.10;98.60
28552;DHT22;15752;49.560;8.708;2022-12-11T00:46:15;4.10;98.70
28552;DHT22;15752;49.560;8.708;2022-12-11T00:48:44;4.20;98.60
28552;DHT22;15752;49.560;8.708;2022-12-11T00:51:14;4.00;98.70
28552;DHT22;15752;49.560;8.708;2022-12-11T00:53:43;4.30;98.70
28552;DHT22;15752;49.560;8.708;2022-12-11T00:56:13;4.00;98.50
28552;DHT22;15752;49.560;8.708;2022-12-11T00:58:45;4.00;98.70
28552;DHT22;15752;49.560;8.708;2022-12-11T01:01:15;4.10;98.50
28552;DHT22;15752;49.560;8.708;2022-12-11T01:03:46;4.00;98.70
28552;DHT22;15752;49.560;8.708;2022-12-11T01:06:17;4.20;98.60
28552;DHT22;15752;49.560;8.708;2022-12-11T01:08:47;4.00;98.50
28552;DHT22;15752;49.560;8.708;2022-12-11T01:11:35;4.00;98.50
28552;DHT22;15752;49.560;8.708;2022-12-11T01:14:05;4.00;98.50
28552;DHT22;15752;49.560;8.708;2022-12-11T01:16:33;4.20;98.60
28552;DHT22;15752;49.560;8.708;2022-12-11T01:19:03;4.20;98.50
28552;DHT22;15752;49.560;8.708;2022-12-11T01:21:31;4.00;98.50
28552;DHT22;15752;49.560;8.708;2022-12-11T01:24:00;4.00;98.60
28552;DHT22;15752;49.560;8.708;2022-12-11T01:26:28;4.00;98.60
28552;DHT22;15752;49.560;8.708;2022-12-11T01:28:57;4.00;98.60
28552;DHT22;15752;49.560;8.708;2022-12-11T01:31:27;4.20;98.60
28552;DHT22;15752;49.560;8.708;2022-12-11T01:33:56;4.00;98.70
28552;DHT22;15752;49.560;8.708;2022-12-11T01:36:25;4.20;98.60
28552;DHT22;15752;49.560;8.708;2022-12-11T01:38:53;4.00;98.60
28552;DHT22;15752;49.560;8.708;2022-12-11T01:41:22;4.20;98.60
28552;DHT22;15752;49.560;8.708;2022-12-11T01:44:02;4.00;98.60
28552;DHT22;15752;49.560;8.708;2022-12-11T01:46:35;4.20;98.90
28552;DHT22;15752;49.560;8.708;2022-12-11T01:49:07;4.00;98.70
28552;DHT22;15752;49.560;8.708;2022-12-11T01:51:39;4.20;98.70
28552;DHT22;15752;49.560;8.708;2022-12-11T01:54:12;4.20;98.80
28552;DHT22;15752;49.560;8.708;2022-12-11T01:56:43;4.00;98.80
28552;DHT22;15752;49.560;8.708;2022-12-11T01:59:15;4.20;98.80
28552;DHT22;15752;49.560;8.708;2022-12-11T02:01:49;4.00;98.70
28552;DHT22;15752;49.560;8.708;2022-12-11T02:04:21;4.00;98.80
28552;DHT22;15752;49.560;8.708;2022-12-11T02:06:55;4.00;98.80
28552;DHT22;15752;49.560;8.708;2022-12-11T02:09:26;4.00;98.80
28552;DHT22;15752;49.560;8.708;2022-12-11T02:12:01;4.00;98.80
28552;DHT22;15752;49.560;8.708;2022-12-11T02:14:40;4.00;98.70
28552;DHT22;15752;49.560;8.708;2022-12-11T02:17:15;4.00;98.60
28552;DHT22;15752;49.560;8.708;2022-12-11T02:19:53;4.10;98.80
28552;DHT22;15752;49.560;8.708;2022-12-11T02:22:38;4.00;98.80
28552;DHT22;15752;49.560;8.708;2022-12-11T02:25:40;4.20;98.90
28552;DHT22;15752;49.560;8.708;2022-12-11T02:28:18;4.10;98.80
28552;DHT22;15752;49.560;8.708;2022-12-11T02:30:50;4.00;98.80
28552;DHT22;15752;49.560;8.708;2022-12-11T02:33:27;4.00;98.80
28552;DHT22;15752;49.560;8.708;2022-12-11T02:36:01;4.00;98.90
28552;DHT22;15752;49.560;8.708;2022-12-11T02:38:34;4.10;98.90
28552;DHT22;15752;49.560;8.708;2022-12-11T02:41:06;4.00;99.00
28552;DHT22;15752;49.560;8.708;2022-12-11T02:43:37;4.10;98.90
28552;DHT22;15752;49.560;8.708;2022-12-11T02:46:07;4.30;99.00
28552;DHT22;15752;49.560;8.708;2022-12-11T02:48:35;4.10;98.90
28552;DHT22;15752;49.560;8.708;2022-12-11T02:51:08;4.10;98.90
28552;DHT22;15752;49.560;8.708;2022-12-11T02:53:39;4.10;99.00
28552;DHT22;15752;49.560;8.708;2022-12-11T02:56:12;4.10;98.90
28552;DHT22;15752;49.560;8.708;2022-12-11T02:58:48;4.10;98.90
28552;DHT22;15752;49.560;8.708;2022-12-11T03:01:24;4.10;98.90
28552;DHT22;15752;49.560;8.708;2022-12-11T03:03:53;4.10;98.80
28552;DHT22;15752;49.560;8.708;2022-12-11T03:06:28;4.10;99.00
28552;DHT22;15752;49.560;8.708;2022-12-11T03:09:00;4.10;98.90
28552;DHT22;15752;49.560;8.708;2022-12-11T03:11:28;4.10;98.80
28552;DHT22;15752;49.560;8.708;2022-12-11T03:13:58;4.30;98.90
28552;DHT22;15752;49.560;8.708;2022-12-11T03:16:33;4.10;98.90
28552;DHT22;15752;49.560;8.708;2022-12-11T03:19:10;4.30;99.00
28552;DHT22;15752;49.560;8.708;2022-12-11T03:21:47;4.10;99.00
28552;DHT22;15752;49.560;8.708;2022-12-11T03:24:20;4.10;99.00
28552;DHT22;15752;49.560;8.708;2022-12-11T03:26:54;4.10;98.90
28552;DHT22;15752;49.560;8.708;2022-12-11T03:29:31;4.10;99.30
28552;DHT22;15752;49.560;8.708;2022-12-11T03:32:06;4.20;98.90
28552;DHT22;15752;49.560;8.708;2022-12-11T03:34:40;4.10;99.00
28552;DHT22;15752;49.560;8.708;2022-12-11T03:37:13;4.30;99.10
28552;DHT22;15752;49.560;8.708;2022-12-11T03:39:46;4.10;99.00
28552;DHT22;15752;49.560;8.708;2022-12-11T03:42:18;4.20;99.10
28552;DHT22;15752;49.560;8.708;2022-12-11T03:44:52;4.20;99.00
28552;DHT22;15752;49.560;8.708;2022-12-11T03:47:22;4.20;99.10
28552;DHT22;15752;49.560;8.708;2022-12-11T03:49:53;4.20;99.00
28552;DHT22;15752;49.560;8.708;2022-12-11T03:52:24;4.20;99.00
28552;DHT22;15752;49.560;8.708;2022-12-11T03:54:56;4.20;98.80
28552;DHT22;15752;49.560;8.708;2022-12-11T03:57:30;4.20;99.00
28552;DHT22;15752;49.560;8.708;2022-12-11T04:00:04;4.20;99.10
28552;DHT22;15752;49.560;8.708;2022-12-11T04:02:37;4.20;99.00
28552;DHT22;15752;49.560;8.708;2022-12-11T04:05:07;4.40;99.00
28552;DHT22;15752;49.560;8.708;2022-12-11T04:07:36;4.20;99.00
28552;DHT22;15752;49.560;8.708;2022-12-11T04:10:05;4.40;99.00
28552;DHT22;15752;49.560;8.708;2022-12-11T04:12:34;4.20;99.10
28552;DHT22;15752;49.560;8.708;2022-12-11T04:15:05;4.40;98.90
28552;DHT22;15752;49.560;8.708;2022-12-11T04:17:34;4.20;99.10
28552;DHT22;15752;49.560;8.708;2022-12-11T04:20:29;4.20;99.20
28552;DHT22;15752;49.560;8.708;2022-12-11T04:23:17;4.20;99.00
28552;DHT22;15752;49.560;8.708;2022-12-11T04:26:04;4.40;99.20
28552;DHT22;15752;49.560;8.708;2022-12-11T04:28:34;4.20;99.10
28552;DHT22;15752;49.560;8.708;2022-12-11T04:31:04;4.20;99.00
28552;DHT22;15752;49.560;8.708;2022-12-11T04:33:33;4.20;99.20
28552;DHT22;15752;49.560;8.708;2022-12-11T04:36:01;4.30;99.00
28552;DHT22;15752;49.560;8.708;2022-12-11T04:38:30;4.30;99.10
28552;DHT22;15752;49.560;8.708;2022-12-11T04:40:58;4.20;99.10
28552;DHT22;15752;49.560;8.708;2022-12-11T04:43:27;4.20;99.20
28552;DHT22;15752;49.560;8.708;2022-12-11T04:46:00;4.20;99.10
28552;DHT22;15752;49.560;8.708;2022-12-11T04:48:31;4.40;99.60
28552;DHT22;15752;49.560;8.708;2022-12-11T04:51:00;4.30;99.10
28552;DHT22;15752;49.560;8.708;2022-12-11T04:53:29;4.20;99.10
28552;DHT22;15752;49.560;8.708;2022-12-11T04:55:58;4.20;99.20
28552;DHT22;15752;49.560;8.708;2022-12-11T04:58:27;4.30;99.20
28552;DHT22;15752;49.560;8.708;2022-12-11T05:00:56;4.20;99.20
28552;DHT22;15752;49.560;8.708;2022-12-11T05:03:24;4.20;99.10
28552;DHT22;15752;49.560;8.708;2022-12-11T05:05:54;4.20;99.10
28552;DHT22;15752;49.560;8.708;2022-12-11T05:08:22;4.20;98.90
28552;DHT22;15752;49.560;8.708;2022-12-11T05:10:54;4.20;99.10
28552;DHT22;15752;49.560;8.708;2022-12-11T05:13:23;4.20;99.20
28552;DHT22;15752;49.560;8.708;2022-12-11T05:15:52;4.30;99.20
28552;DHT22;15752;49.560;8.708;2022-12-11T05:18:21;4.40;99.40
28552;DHT22;15752;49.560;8.708;2022-12-11T05:20:56;4.20;99.30
28552;DHT22;15752;49.560;8.708;2022-12-11T05:23:25;4.20;99.30
28552;DHT22;15752;49.560;8.708;2022-12-11T05:25:54;4.40;99.30
28552;DHT22;15752;49.560;8.708;2022-12-11T05:28:24;4.40;99.30
28552;DHT22;15752;49.560;8.708;2022-12-11T05:30:55;4.30;99.40
28552;DHT22;15752;49.560;8.708;2022-12-11T05:33:24;4.30;99.40
28552;DHT22;15752;49.560;8.708;2022-12-11T05:35:55;4.30;99.40
28552;DHT22;15752;49.560;8.708;2022-12-11T05:38:23;4.30;99.30
28552;DHT22;15752;49.560;8.708;2022-12-11T05:40:56;4.30;99.00
28552;DHT22;15752;49.560;8.708;2022-12-11T05:43:25;4.30;99.30
28552;DHT22;15752;49.560;8.708;2022-12-11T05:45:55;4.60;99.40
28552;DHT22;15752;49.560;8.708;2022-12-11T05:48:33;4.60;99.40
28552;DHT22;15752;49.560;8.708;2022-12-11T05:51:03;4.50;99.40
28552;DHT22;15752;49.560;8.708;2022-12-11T05:53:35;4.30;99.30
28552;DHT22;15752;49.560;8.708;2022-12-11T05:56:05;4.30;99.30
28552;DHT22;15752;49.560;8.708;2022-12-11T05:58:35;4.30;99.30
28552;DHT22;15752;49.560;8.708;2022-12-11T06:01:07;4.30;99.20
28552;DHT22;15752;49.560;8.708;2022-12-11T06:03:36;4.30;99.30
28552;DHT22;15752;49.560;8.708;2022-12-11T06:06:07;4.30;99.20
28552;DHT22;15752;49.560;8.708;2022-12-11T06:08:35;4.30;99.20
28552;DHT22;15752;49.560;8.708;2022-12-11T06:11:04;4.60;99.20
28552;DHT22;15752;49.560;8.708;2022-12-11T06:13:33;4.40;99.30
28552;DHT22;15752;49.560;8.708;2022-12-11T06:16:04;4.30;99.30
28552;DHT22;15752;49.560;8.708;2022-12-11T06:18:35;4.30;99.30
28552;DHT22;15752;49.560;8.708;2022-12-11T06:21:12;4.40;99.20
28552;DHT22;15752;49.560;8.708;2022-12-11T06:23:41;4.30;99.30
28552;DHT22;15752;49.560;8.708;2022-12-11T06:26:11;4.30;99.30
28552;DHT22;15752;49.560;8.708;2022-12-11T06:28:40;4.30;99.20
28552;DHT22;15752;49.560;8.708;2022-12-11T06:31:08;4.60;99.10
28552;DHT22;15752;49.560;8.708;2022-12-11T06:33:37;4.60;99.60
28552;DHT22;15752;49.560;8.708;2022-12-11T06:36:08;4.30;99.10
28552;DHT22;15752;49.560;8.708;2022-12-11T06:38:39;4.30;99.20
28552;DHT22;15752;49.560;8.708;2022-12-11T06:41:07;4.30;99.10
28552;DHT22;15752;49.560;8.708;2022-12-11T06:43:37;4.30;99.20
28552;DHT22;15752;49.560;8.708;2022-12-11T06:46:08;4.60;99.30
28552;DHT22;15752;49.560;8.708;2022-12-11T06:48:37;4.30;99.20
28552;DHT22;15752;49.560;8.708;2022-12-11T06:51:09;4.30;99.10
28552;DHT22;15752;49.560;8.708;2022-12-11T06:53:40;4.30;99.20
28552;DHT22;15752;49.560;8.708;2022-12-11T06:56:12;4.30;99.20
28552;DHT22;15752;49.560;8.708;2022-12-11T06:58:42;4.30;99.20
28552;DHT22;15752;49.560;8.708;2022-12-11T07:01:16;4.20;99.10
28552;DHT22;15752;49.560;8.708;2022-12-11T07:03:46;4.20;99.20
28552;DHT22;15752;49.560;8.708;2022-12-11T07:06:15;4.20;99.00
28552;DHT22;15752;49.560;8.708;2022-12-11T07:08:45;4.20;99.10
28552;DHT22;15752;49.560;8.708;2022-12-11T07:11:15;4.20;99.00
28552;DHT22;15752;49.560;8.708;2022-12-11T07:13:45;4.20;99.00
28552;DHT22;15752;49.560;8.708;2022-12-11T07:16:15;4.20;99.00
28552;DHT22;15752;49.560;8.708;2022-12-11T07:18:49;4.20;99.20
28552;DHT22;15752;49.560;8.708;2022-12-11T07:21:19;4.10;99.00
28552;DHT22;15752;49.560;8.708;2022-12-11T07:23:49;4.10;99.00
28552;DHT22;15752;49.560;8.708;2022-12-11T07:26:19;4.40;98.80
28552;DHT22;15752;49.560;8.708;2022-12-11T07:28:49;4.10;99.10
28552;DHT22;15752;49.560;8.708;2022-12-11T07:31:19;4.10;99.20
28552;DHT22;15752;49.560;8.708;2022-12-11T07:33:52;4.10;99.30
28552;DHT22;15752;49.560;8.708;2022-12-11T07:36:21;4.10;99.30
28552;DHT22;15752;49.560;8.708;2022-12-11T07:38:52;4.10;99.20
28552;DHT22;15752;49.560;8.708;2022-12-11T07:41:22;4.10;99.30
28552;DHT22;15752;49.560;8.708;2022-12-11T07:43:53;4.40;99.30
28552;DHT22;15752;49.560;8.708;2022-12-11T07:46:24;4.30;99.20
28552;DHT22;15752;49.560;8.708;2022-12-11T07:48:54;4.20;99.30
28552;DHT22;15752;49.560;8.708;2022-12-11T07:51:24;4.10;99.10
28552;DHT22;15752;49.560;8.708;2022-12-11T07:53:57;4.10;99.40
28552;DHT22;15752;49.560;8.708;2022-12-11T07:56:27;4.10;99.40
28552;DHT22;15752;49.560;8.708;2022-12-11T07:58:58;4.20;99.40
28552;DHT22;15752;49.560;8.708;2022-12-11T08:01:28;4.20;99.40
28552;DHT22;15752;49.560;8.708;2022-12-11T08:03:58;4.20;99.30
28552;DHT22;15752;49.560;8.708;2022-12-11T08:06:28;4.20;99.20
28552;DHT22;15752;49.560;8.708;2022-12-11T08:09:00;4.20;99.30
28552;DHT22;15752;49.560;8.708;2022-12-11T08:11:29;4.20;99.30
28552;DHT22;15752;49.560;8.708;2022-12-11T08:13:58;4.50;99.10
28552;DHT22;15752;49.560;8.708;2022-12-11T08:16:27;4.20;99.30
28552;DHT22;15752;49.560;8.708;2022-12-11T08:18:57;4.30;99.40
28552;DHT22;15752;49.560;8.708;2022-12-11T08:21:28;4.30;99.40
28552;DHT22;15752;49.560;8.708;2022-12-11T08:23:58;4.30;99.30
28552;DHT22;15752;49.560;8.708;2022-12-11T08:26:29;4.30;99.10
28552;DHT22;15752;49.560;8.708;2022-12-11T08:28:59;4.60;99.50
28552;DHT22;15752;49.560;8.708;2022-12-11T08:31:28;4.30;99.40
28552;DHT22;15752;49.560;8.708;2022-12-11T08:33:57;4.70;99.00
28552;DHT22;15752;49.560;8.708;2022-12-11T08:36:26;4.30;99.10
28552;DHT22;15752;49.560;8.708;2022-12-11T08:38:55;4.40;99.30
28552;DHT22;15752;49.560;8.708;2022-12-11T08:41:26;4.70;99.50
28552;DHT22;15752;49.560;8.708;2022-12-11T08:43:57;4.40;99.40
28552;DHT22;15752;49.560;8.708;2022-12-11T08:46:29;4.40;99.40
28552;DHT22;15752;49.560;8.708;2022-12-11T08:48:59;4.40;99.40
28552;DHT22;15752;49.560;8.708;2022-12-11T08:51:29;4.40;99.30
28552;DHT22;15752;49.560;8.708;2022-12-11T08:53:59;4.50;99.40
28552;DHT22;15752;49.560;8.708;2022-12-11T08:56:29;4.70;99.50
28552;DHT22;15752;49.560;8.708;2022-12-11T08:58:58;4.50;99.50
28552;DHT22;15752;49.560;8.708;2022-12-11T09:01:28;4.70;99.40
28552;DHT22;15752;49.560;8.708;2022-12-11T09:03:57;4.60;99.40
28552;DHT22;15752;49.560;8.708;2022-12-11T09:06:28;4.80;99.30
28552;DHT22;15752;49.560;8.708;2022-12-11T09:08:58;4.60;99.40
28552;DHT22;15752;49.560;8.708;2022-12-11T09:11:31;4.50;99.40
28552;DHT22;15752;49.560;8.708;2022-12-11T09:14:01;4.60;99.40
28552;DHT22;15752;49.560;8.708;2022-12-11T09:16:34;4.60;99.40
28552;DHT22;15752;49.560;8.708;2022-12-11T09:19:07;4.60;99.40
28552;DHT22;15752;49.560;8.708;2022-12-11T09:21:38;4.60;99.40
28552;DHT22;15752;49.560;8.708;2022-12-11T09:24:08;4.60;99.20
28552;DHT22;15752;49.560;8.708;2022-12-11T09:26:39;4.60;99.30
28552;DHT22;15752;49.560;8.708;2022-12-11T09:29:12;4.60;99.30
28552;DHT22;15752;49.560;8.708;2022-12-11T09:31:41;4.80;99.30
28552;DHT22;15752;49.560;8.708;2022-12-11T09:34:12;5.00;99.40
28552;DHT22;15752;49.560;8.708;2022-12-11T09:36:42;4.70;99.40
28552;DHT22;15752;49.560;8.708;2022-12-11T09:39:13;4.70;99.30
28552;DHT22;15752;49.560;8.708;2022-12-11T09:41:51;4.90;99.50
28552;DHT22;15752;49.560;8.708;2022-12-11T09:44:31;4.70;99.40
28552;DHT22;15752;49.560;8.708;2022-12-11T09:47:12;4.80;99.40
28552;DHT22;15752;49.560;8.708;2022-12-11T09:49:57;4.80;99.40
28552;DHT22;15752;49.560;8.708;2022-12-11T09:52:34;4.70;99.40
28552;DHT22;15752;49.560;8.708;2022-12-11T09:55:13;5.10;99.40
28552;DHT22;15752;49.560;8.708;2022-12-11T09:57:51;4.90;99.30
28552;DHT22;15752;49.560;8.708;2022-12-11T10:00:27;5.00;99.40
28552;DHT22;15752;49.560;8.708;2022-12-11T10:03:18;4.80;99.30
28552;DHT22;15752;49.560;8.708;2022-12-11T10:05:59;4.80;99.40
28552;DHT22;15752;49.560;8.708;2022-12-11T10:08:34;5.20;99.50
28552;DHT22;15752;49.560;8.708;2022-12-11T10:11:25;4.80;99.40
28552;DHT22;15752;49.560;8.708;2022-12-11T10:14:12;4.80;99.40
28552;DHT22;15752;49.560;8.708;2022-12-11T10:16:47;4.90;99.40
28552;DHT22;15752;49.560;8.708;2022-12-11T10:19:20;4.90;99.40
28552;DHT22;15752;49.560;8.708;2022-12-11T10:21:50;4.90;99.40
28552;DHT22;15752;49.560;8.708;2022-12-11T10:24:22;4.90;99.30
28552;DHT22;15752;49.560;8.708;2022-12-11T10:27:15;5.20;99.40
28552;DHT22;15752;49.560;8.708;2022-12-11T10:30:00;4.90;99.30
28552;DHT22;15752;49.560;8.708;2022-12-11T10:32:35;5.30;99.40
28552;DHT22;15752;49.560;8.708;2022-12-11T10:35:18;4.90;99.40
28552;DHT22;15752;49.560;8.708;2022-12-11T10:37:51;5.20;99.40
28552;DHT22;15752;49.560;8.708;2022-12-11T10:40:24;4.90;99.30
28552;DHT22;15752;49.560;8.708;2022-12-11T10:42:53;5.00;99.40
28552;DHT22;15752;49.560;8.708;2022-12-11T10:45:23;5.20;99.30
28552;DHT22;15752;49.560;8.708;2022-12-11T10:48:01;5.10;99.10
28552;DHT22;15752;49.560;8.708;2022-12-11T10:50:30;4.90;99.30
28552;DHT22;15752;49.560;8.708;2022-12-11T10:52:59;4.90;99.20
28552;DHT22;15752;49.560;8.708;2022-12-11T10:55:32;5.10;99.40
28552;DHT22;15752;49.560;8.708;2022-12-11T10:58:06;5.00;99.40
28552;DHT22;15752;49.560;8.708;2022-12-11T11:00:42;4.90;99.30
28552;DHT22;15752;49.560;8.708;2022-12-11T11:03:21;5.30;99.20
28552;DHT22;15752;49.560;8.708;2022-12-11T11:06:01;5.00;99.40
28552;DHT22;15752;49.560;8.708;2022-12-11T11:08:39;5.30;99.40
28552;DHT22;15752;49.560;8.708;2022-12-11T11:11:22;5.00;99.20
28552;DHT22;15752;49.560;8.708;2022-12-11T11:14:04;5.00;99.30
28552;DHT22;15752;49.560;8.708;2022-12-11T11:16:37;5.00;99.30
28552;DHT22;15752;49.560;8.708;2022-12-11T11:19:06;5.00;99.20
28552;DHT22;15752;49.560;8.708;2022-12-11T11:21:48;5.00;99.30
28552;DHT22;15752;49.560;8.708;2022-12-11T11:24:29;5.30;99.40
28552;DHT22;15752;49.560;8.708;2022-12-11T11:27:02;5.10;99.30
28552;DHT22;15752;49.560;8.708;2022-12-11T11:29:40;5.00;99.20
28552;DHT22;15752;49.560;8.708;2022-12-11T11:32:19;5.20;99.30
28552;DHT22;15752;49.560;8.708;2022-12-11T11:34:50;5.00;99.20
28552;DHT22;15752;49.560;8.708;2022-12-11T11:37:31;5.10;99.10
28552;DHT22;15752;49.560;8.708;2022-12-11T11:40:04;5.10;99.30
28552;DHT22;15752;49.560;8.708;2022-12-11T11:42:44;5.10;99.30
28552;DHT22;15752;49.560;8.708;2022-12-11T11:45:21;5.40;99.40
28552;DHT22;15752;49.560;8.708;2022-12-11T11:47:59;5.10;99.20
28552;DHT22;15752;49.560;8.708;2022-12-11T11:50:42;5.10;99.20
28552;DHT22;15752;49.560;8.708;2022-12-11T11:53:18;5.40;99.30
28552;DHT22;15752;49.560;8.708;2022-12-11T11:55:57;5.20;99.30
28552;DHT22;15752;49.560;8.708;2022-12-11T11:58:38;5.20;99.30
28552;DHT22;15752;49.560;8.708;2022-12-11T12:01:13;5.20;99.30
28552;DHT22;15752;49.560;8.708;2022-12-11T12:03:45;5.20;99.40
28552;DHT22;15752;49.560;8.708;2022-12-11T12:06:22;5.20;99.20
28552;DHT22;15752;49.560;8.708;2022-12-11T12:09:09;5.20;99.30
28552;DHT22;15752;49.560;8.708;2022-12-11T12:11:48;5.20;99.30
28552;DHT22;15752;49.560;8.708;2022-12-11T12:14:23;5.50;99.40
28552;DHT22;15752;49.560;8.708;2022-12-11T12:17:22;5.20;99.10
28552;DHT22;15752;49.560;8.708;2022-12-11T12:20:08;5.20;99.30
28552;DHT22;15752;49.560;8.708;2022-12-11T12:22:53;5.20;99.30
28552;DHT22;15752;49.560;8.708;2022-12-11T12:25:31;5.60;99.40
28552;DHT22;15752;49.560;8.708;2022-12-11T12:28:12;5.20;99.30
28552;DHT22;15752;49.560;8.708;2022-12-11T12:30:58;5.40;99.40
28552;DHT22;15752;49.560;8.708;2022-12-11T12:33:43;5.50;99.40
28552;DHT22;15752;49.560;8.708;2022-12-11T12:36:24;5.40;99.40
28552;DHT22;15752;49.560;8.708;2022-12-11T12:39:00;5.50;99.40
28552;DHT22;15752;49.560;8.708;2022-12-11T12:41:37;5.30;99.70
28552;DHT22;15752;49.560;8.708;2022-12-11T12:44:13;5.50;99.40
28552;DHT22;15752;49.560;8.708;2022-12-11T12:46:50;5.50;99.40
28552;DHT22;15752;49.560;8.708;2022-12-11T12:49:33;5.30;99.40
28552;DHT22;15752;49.560;8.708;2022-12-11T12:52:10;5.30;99.40
28552;DHT22;15752;49.560;8.708;2022-12-11T12:54:41;5.30;99.40
28552;DHT22;15752;49.560;8.708;2022-12-11T12:57:34;5.30;99.40
28552;DHT22;15752;49.560;8.708;2022-12-11T13:00:04;5.60;99.40
28552;DHT22;15752;49.560;8.708;2022-12-11T13:02:47;5.30;99.30
28552;DHT22;15752;49.560;8.708;2022-12-11T13:05:21;5.60;99.40
28552;DHT22;15752;49.560;8.708;2022-12-11T13:07:54;5.30;99.30
28552;DHT22;15752;49.560;8.708;2022-12-11T13:10:30;5.70;99.40
28552;DHT22;15752;49.560;8.708;2022-12-11T13:13:00;5.40;99.40
28552;DHT22;15752;49.560;8.708;2022-12-11T13:15:35;5.70;99.50
28552;DHT22;15752;49.560;8.708;2022-12-11T13:18:31;5.40;99.40
28552;DHT22;15752;49.560;8.708;2022-12-11T13:21:29;5.40;99.40
28552;DHT22;15752;49.560;8.708;2022-12-11T13:24:16;5.40;99.30
28552;DHT22;15752;49.560;8.708;2022-12-11T13:26:52;5.40;99.40
28552;DHT22;15752;49.560;8.708;2022-12-11T13:29:29;5.60;99.40
28552;DHT22;15752;49.560;8.708;2022-12-11T13:32:00;5.40;99.40
28552;DHT22;15752;49.560;8.708;2022-12-11T13:34:32;5.60;99.40
28552;DHT22;15752;49.560;8.708;2022-12-11T13:37:01;5.70;99.40
28552;DHT22;15752;49.560;8.708;2022-12-11T13:39:34;5.40;99.40
28552;DHT22;15752;49.560;8.708;2022-12-11T13:42:07;5.40;99.40
28552;DHT22;15752;49.560;8.708;2022-12-11T13:44:49;5.40;99.40
28552;DHT22;15752;49.560;8.708;2022-12-11T13:47:18;5.50;99.40
28552;DHT22;15752;49.560;8.708;2022-12-11T13:49:52;5.50;99.40
28552;DHT22;15752;49.560;8.708;2022-12-11T13:52:23;5.50;99.40
28552;DHT22;15752;49.560;8.708;2022-12-11T13:54:55;5.50;99.40
28552;DHT22;15752;49.560;8.708;2022-12-11T13:57:25;5.60;99.30
28552;DHT22;15752;49.560;8.708;2022-12-11T13:59:56;5.50;99.30
28552;DHT22;15752;49.560;8.708;2022-12-11T14:02:27;5.50;99.30
28552;DHT22;15752;49.560;8.708;2022-12-11T14:05:00;5.50;99.30
28552;DHT22;15752;49.560;8.708;2022-12-11T14:07:32;5.90;99.40
28552;DHT22;15752;49.560;8.708;2022-12-11T14:10:06;5.60;99.40
28552;DHT22;15752;49.560;8.708;2022-12-11T14:12:42;5.60;99.10
28552;DHT22;15752;49.560;8.708;2022-12-11T14:15:14;5.80;99.40
28552;DHT22;15752;49.560;8.708;2022-12-11T14:17:43;5.60;99.20
28552;DHT22;15752;49.560;8.708;2022-12-11T14:20:19;5.60;99.60
28552;DHT22;15752;49.560;8.708;2022-12-11T14:22:50;5.80;99.40
28552;DHT22;15752;49.560;8.708;2022-12-11T14:25:22;5.60;99.10
28552;DHT22;15752;49.560;8.708;2022-12-11T14:27:54;5.60;99.30
28552;DHT22;15752;49.560;8.708;2022-12-11T14:30:25;5.60;99.30
28552;DHT22;15752;49.560;8.708;2022-12-11T14:32:56;5.60;99.30
28552;DHT22;15752;49.560;8.708;2022-12-11T14:35:28;5.60;99.20
28552;DHT22;15752;49.560;8.708;2022-12-11T14:38:09;5.70;99.30
28552;DHT22;15752;49.560;8.708;2022-12-11T14:40:46;5.80;99.40
28552;DHT22;15752;49.560;8.708;2022-12-11T14:43:21;5.60;99.40
28552;DHT22;15752;49.560;8.708;2022-12-11T14:45:55;5.60;99.40
28552;DHT22;15752;49.560;8.708;2022-12-11T14:48:27;5.70;99.40
28552;DHT22;15752;49.560;8.708;2022-12-11T14:51:01;5.90;99.50
28552;DHT22;15752;49.560;8.708;2022-12-11T14:53:34;5.90;99.50
28552;DHT22;15752;49.560;8.708;2022-12-11T14:56:12;5.60;99.30
28552;DHT22;15752;49.560;8.708;2022-12-11T14:58:48;5.60;99.40
28552;DHT22;15752;49.560;8.708;2022-12-11T15:01:24;5.90;99.40
28552;DHT22;15752;49.560;8.708;2022-12-11T15:04:03;5.60;99.30
28552;DHT22;15752;49.560;8.708;2022-12-11T15:06:34;5.80;99.40
28552;DHT22;15752;49.560;8.708;2022-12-11T15:09:23;5.60;99.30
28552;DHT22;15752;49.560;8.708;2022-12-11T15:11:56;5.90;99.40
28552;DHT22;15752;49.560;8.708;2022-12-11T15:14:26;5.90;99.50
28552;DHT22;15752;49.560;8.708;2022-12-11T15:16:56;5.50;98.90
28552;DHT22;15752;49.560;8.708;2022-12-11T15:19:28;5.80;99.10
28552;DHT22;15752;49.560;8.708;2022-12-11T15:22:03;5.80;99.40
28552;DHT22;15752;49.560;8.708;2022-12-11T15:24:37;5.80;99.40
28552;DHT22;15752;49.560;8.708;2022-12-11T15:27:22;5.90;99.50
28552;DHT22;15752;49.560;8.708;2022-12-11T15:29:52;5.80;99.50
28552;DHT22;15752;49.560;8.708;2022-12-11T15:32:21;5.50;99.20
28552;DHT22;15752;49.560;8.708;2022-12-11T15:34:56;5.70;99.80
28552;DHT22;15752;49.560;8.708;2022-12-11T15:37:27;5.60;99.40
28552;DHT22;15752;49.560;8.708;2022-12-11T15:39:58;5.80;99.40
28552;DHT22;15752;49.560;8.708;2022-12-11T15:42:30;5.50;99.30
28552;DHT22;15752;49.560;8.708;2022-12-11T15:45:04;5.80;99.40
28552;DHT22;15752;49.560;8.708;2022-12-11T15:47:34;5.50;99.30
28552;DHT22;15752;49.560;8.708;2022-12-11T15:50:14;5.50;99.20
28552;DHT22;15752;49.560;8.708;2022-12-11T15:52:43;5.50;99.40
28552;DHT22;15752;49.560;8.708;2022-12-11T15:55:13;5.90;99.40
28552;DHT22;15752;49.560;8.708;2022-12-11T15:57:45;5.50;99.30
28552;DHT22;15752;49.560;8.708;2022-12-11T16:00:15;5.50;99.30
28552;DHT22;15752;49.560;8.708;2022-12-11T16:02:45;5.50;99.40
28552;DHT22;15752;49.560;8.708;2022-12-11T16:05:14;5.50;99.30
28552;DHT22;15752;49.560;8.708;2022-12-11T16:07:43;5.50;99.30
28552;DHT22;15752;49.560;8.708;2022-12-11T16:10:14;5.70;99.30
28552;DHT22;15752;49.560;8.708;2022-12-11T16:12:45;5.80;99.40
28552;DHT22;15752;49.560;8.708;2022-12-11T16:15:14;5.80;99.40
28552;DHT22;15752;49.560;8.708;2022-12-11T16:17:49;5.50;99.30
28552;DHT22;15752;49.560;8.708;2022-12-11T16:20:25;5.50;99.30
28552;DHT22;15752;49.560;8.708;2022-12-11T16:22:54;5.80;99.10